Latest Weather Observations for High Range (Wanganderry)

IDN60801

Issued at 9:32 am EDT Wednesday 18 October 2017 (issued every 30 minutes, with the page automatically refreshed every 10 minutes)

About weather observations | Map of weather stations | Latest weather observations for NSW | Other Formats
Station Details ID: 068262 Name: HIGH RANGE AWS (WANGANDERRY) Lat: -34.33 Lon: 150.27 Height: 813.6 m
Data from the previous 72 hours. | See also: Recent months for locations in New South Wales
Date/Time
EDT
Temp
°C
App
Temp
°C
Dew
Point
°C
Rel
Hum
%
Delta-T
°C
Wind Press
QNH
hPa
Press
MSL
hPa
Rain since
9am
mm
Dir  Spd
km/h
Gust
km/h
Spd
kts
Gust
kts
18/09:30am 14.7 8.5 10.1 74 2.5 NNE 33 44 18 24 1029.1 1027.5 0.0
18/09:00am 13.6 5.4 9.6 77 2.1 NNE 43 65 23 35 1028.6 1027.1 0.0
18/08:54am 13.8 6.4 9.8 77 2.2 NNE 39 61 21 33 1028.6 1027.1 0.0
18/08:30am 13.3 7.7 10.3 82 1.6 NNE 30 41 16 22 1028.9 1027.3 0.0
18/08:00am 12.5 7.4 10.6 88 1.0 NNE 28 35 15 19 1028.7 1027.2 0.0
18/07:30am 12.2 6.3 10.6 90 0.9 NNE 32 41 17 22 1028.6 1027.1 0.0
18/07:00am 12.0 7.7 10.9 93 0.6 NNE 24 33 13 18 1028.3 1026.8 0.0
18/06:30am 11.5 6.8 10.6 94 0.5 NNE 26 33 14 18 1027.9 1026.3 0.0
18/06:00am 11.2 6.9 10.6 96 0.3 NNE 24 32 13 17 1027.7 1026.1 0.0
18/05:30am 11.4 6.2 10.1 92 0.7 NNE 28 39 15 21 1027.3 1025.8 0.0
18/05:00am 11.6 6.0 10.0 90 0.8 NNE 30 43 16 23 1027.0 1025.4 0.0
18/04:30am 11.7 6.1 10.1 90 0.9 NNE 30 39 16 21 1027.1 1025.5 0.0
18/04:00am 12.0 6.5 10.4 90 0.9 NNE 30 35 16 19 1027.2 1025.7 0.0
18/03:30am 12.1 6.6 10.7 91 0.8 NNE 30 37 16 20 1027.6 1026.0 0.0
18/03:00am 12.1 6.7 10.8 92 0.7 NNE 30 43 16 23 1027.8 1026.2 0.0
18/02:30am 12.1 6.1 10.8 92 0.7 NNE 33 44 18 24 1027.9 1026.3 0.0
18/02:00am 12.2 7.2 11.1 93 0.6 NNE 28 37 15 20 1028.1 1026.5 0.0
18/01:30am 12.2 7.5 10.8 91 0.8 NNE 26 33 14 18 1028.4 1026.9 0.0
18/01:00am 12.3 7.3 11.0 92 0.7 NNE 28 37 15 20 1028.7 1027.2 0.0
18/12:30am 12.4 6.3 10.6 89 1.0 NNE 33 44 18 24 1029.0 1027.4 0.0
18/12:17am 12.4 6.5 10.6 89 1.0 NNE 32 52 17 28 1029.1 1027.5 0.0
18/12:00am 12.5 7.1 10.9 90 0.9 NNE 30 37 16 20 1029.4 1027.9 0.0
 
Date/Time
EDT
Temp
°C
App
Temp
°C
Dew
Point
°C
Rel
Hum
%
Delta-T
°C
Wind Press
QNH
hPa
Press
MSL
hPa
Rain since
9am
mm
Dir  Spd
km/h
Gust
km/h
Spd
kts
Gust
kts
17/11:30pm 12.5 7.5 11.1 91 0.8 NNE 28 43 15 23 1029.2 1027.6 0.0
17/11:00pm 12.6 7.6 11.0 90 0.9 NNE 28 37 15 20 1029.3 1027.7 0.0
17/10:30pm 12.5 7.4 10.6 88 1.0 NE 28 35 15 19 1029.2 1027.6 0.0
17/10:00pm 12.6 7.5 10.5 87 1.1 NE 28 37 15 20 1029.0 1027.4 0.0
17/09:30pm 12.5 6.9 10.2 86 1.2 NE 30 35 16 19 1028.6 1027.1 0.0
17/09:00pm 12.4 6.7 9.8 84 1.4 NE 30 37 16 20 1028.3 1026.8 0.0
17/08:30pm 12.9 7.5 9.5 80 1.8 NE 28 35 15 19 1027.9 1026.3 0.0
17/08:00pm 13.2 8.1 9.1 76 2.2 NNE 26 39 14 21 1027.7 1026.1 0.0
17/07:30pm 13.7 8.9 9.0 73 2.5 NE 24 30 13 16 1027.6 1026.0 0.0
17/07:00pm 14.6 9.4 9.0 69 3.0 NE 26 33 14 18 1027.4 1025.9 0.0
17/06:30pm 15.7 9.8 9.1 65 3.5 NE 30 41 16 22 1027.1 1025.5 0.0
17/06:00pm 17.1 11.3 9.3 60 4.2 NE 30 43 16 23 1026.9 1025.3 0.0
17/05:30pm 18.2 11.9 9.0 55 5.0 NE 32 44 17 24 1026.7 1025.1 0.0
17/05:00pm 19.8 13.6 7.9 46 6.4 NNE 30 41 16 22 1026.4 1024.8 0.0
17/04:30pm 20.4 14.8 7.1 42 7.1 NNE 26 37 14 20 1026.4 1024.8 0.0
17/04:00pm 20.8 15.0 6.4 39 7.5 NNE 26 37 14 20 1026.4 1024.8 0.0
17/03:30pm 20.9 16.3 8.2 44 6.9 NE 22 33 12 18 1026.6 1025.0 0.0
17/03:00pm 21.1 16.3 7.3 41 7.3 ENE 22 33 12 18 1026.7 1025.1 0.0
17/02:30pm 20.2 14.9 6.9 42 7.0 NE 24 30 13 16 1026.8 1025.2 0.0
17/02:00pm 20.7 15.8 7.0 41 7.2 NE 22 35 12 19 1027.1 1025.5 0.0
17/01:30pm 20.8 16.9 8.8 46 6.6 NE 19 30 10 16 1027.3 1025.8 0.0
17/01:00pm 19.3 15.1 7.4 46 6.3 NE 19 30 10 16 1027.6 1026.0 0.0
17/12:30pm 18.8 14.1 7.6 48 5.9 NE 22 33 12 18 1027.9 1026.3 0.0
17/12:00pm 17.6 12.2 7.9 53 5.1 NE 26 35 14 19 1028.2 1026.6 0.0
17/11:30am 17.4 11.5 7.5 52 5.2 NE 28 37 15 20 1028.3 1026.8 0.0
17/11:00am 16.8 10.7 8.2 57 4.5 N 30 41 16 22 1028.5 1027.0 0.0
17/10:30am 16.2 9.4 7.9 58 4.4 NNE 33 44 18 24 1028.5 1027.0 0.0
17/10:00am 15.5 9.0 8.0 61 3.9 NNE 32 43 17 23 1028.6 1027.1 0.0
17/09:30am 14.3 6.7 7.6 64 3.5 NNE 37 50 20 27 1028.5 1027.0 0.0
17/09:00am 14.0 6.5 7.8 66 3.2 N 37 50 20 27 1028.3 1026.8 0.0
17/08:30am 13.3 6.5 7.5 68 3.0 NNE 33 50 18 27 1028.0 1026.4 0.0
17/08:00am 12.4 5.8 7.9 74 2.3 NNE 32 39 17 21 1028.1 1026.5 0.0
17/07:30am 11.5 5.7 7.8 78 1.9 NNE 28 35 15 19 1027.9 1026.3 0.0
17/07:00am 11.0 6.0 8.1 82 1.5 NNE 24 30 13 16 1027.8 1026.2 0.0
17/06:30am 10.2 5.1 7.8 85 1.2 NNE 24 30 13 16 1027.4 1025.9 0.0
17/06:00am 10.1 5.0 7.5 84 1.3 NNE 24 28 13 15 1027.3 1025.8 0.0
17/05:30am 10.7 4.1 7.6 81 1.6 NNE 32 41 17 22 1027.1 1025.5 0.0
17/05:00am 10.7 4.8 7.6 81 1.6 NNE 28 43 15 23 1027.0 1025.4 0.0
17/04:30am 10.8 5.4 7.9 82 1.5 NNE 26 35 14 19 1027.1 1025.5 0.0
17/04:00am 10.9 4.3 7.8 81 1.6 NNE 32 46 17 25 1027.1 1025.5 0.0
17/03:30am 10.7 5.4 8.3 85 1.2 NNE 26 37 14 20 1027.3 1025.8 0.0
17/03:00am 10.5 5.7 8.9 90 0.8 NNE 24 30 13 16 1027.7 1026.1 0.0
17/02:30am 10.0 5.6 9.1 94 0.5 NNE 22 26 12 14 1027.7 1026.1 0.0
17/02:00am 9.7 5.7 9.1 96 0.3 NNE 20 24 11 13 1028.0 1026.4 0.0
17/01:30am 9.6 5.6 9.0 96 0.3 NNE 20 24 11 13 1028.3 1026.8 0.0
17/01:00am 10.0 5.7 9.4 96 0.3 NNE 22 26 12 14 1028.5 1027.0 0.0
17/12:30am 10.1 5.9 9.6 97 0.3 NNE 22 30 12 16 1028.6 1027.1 0.0
17/12:00am 10.3 6.6 9.5 95 0.4 NNE 19 26 10 14 1028.7 1027.2 0.0
 
Date/Time
EDT
Temp
°C
App
Temp
°C
Dew
Point
°C
Rel
Hum
%
Delta-T
°C
Wind Press
QNH
hPa
Press
MSL
hPa
Rain since
9am
mm
Dir  Spd
km/h
Gust
km/h
Spd
kts
Gust
kts
16/11:30pm 10.4 6.4 9.2 92 0.6 NNE 20 26 11 14 1028.9 1027.3 0.0
16/11:00pm 10.9 6.6 9.3 90 0.8 NNE 22 28 12 15 1029.0 1027.4 0.0
16/10:30pm 11.3 7.1 9.6 89 0.9 NNE 22 33 12 18 1028.7 1027.2 0.0
16/10:00pm 11.8 7.6 9.9 88 1.0 NNE 22 37 12 20 1028.7 1027.2 0.0
16/09:30pm 11.9 7.8 10.0 88 1.0 NE 22 28 12 15 1028.7 1027.2 0.0
16/09:00pm 12.0 6.6 9.4 84 1.4 NE 28 37 15 20 1028.3 1026.8 0.0
16/08:30pm 12.5 7.0 9.0 79 1.8 NE 28 39 15 21 1028.0 1026.4 0.0
16/08:00pm 13.0 7.3 8.3 73 2.4 NE 28 39 15 21 1027.8 1026.2 0.0
16/07:30pm 13.8 8.2 8.6 71 2.7 NE 28 35 15 19 1027.6 1026.0 0.0
16/07:00pm 14.7 9.4 8.4 66 3.3 NE 26 33 14 18 1027.1 1025.5 0.0
16/06:30pm 15.8 10.9 8.3 61 4.0 NE 24 33 13 18 1026.9 1025.3 0.0
16/06:00pm 16.9 12.0 8.6 58 4.4 NE 24 33 13 18 1026.9 1025.3 0.0
16/05:30pm 17.7 12.8 8.3 54 5.0 NE 24 33 13 18 1026.6 1025.0 0.0
16/05:00pm 19.0 14.9 7.8 48 5.9 ENE 19 30 10 16 1026.6 1025.0 0.0
16/04:30pm 19.1 14.7 7.5 47 6.2 NE 20 30 11 16 1026.5 1024.9 0.0
16/04:00pm 19.9 15.7 7.6 45 6.5 NE 19 30 10 16 1026.7 1025.1 0.0
16/03:30pm 19.9 15.6 7.9 46 6.4 NE 20 33 11 18 1026.7 1025.1 0.0
16/03:00pm 19.2 14.0 7.3 46 6.3 ENE 24 35 13 19 1027.0 1025.4 0.0
16/02:30pm 20.0 15.9 7.7 45 6.6 NE 19 28 10 15 1027.3 1025.8 0.0
16/02:00pm 19.3 13.7 7.1 45 6.4 NE 26 39 14 21 1027.7 1026.1 0.0
16/01:30pm 18.7 13.6 7.5 48 5.9 NNE 24 35 13 19 1028.0 1026.4 0.0
16/01:00pm 19.0 14.0 8.1 49 5.8 NE 24 33 13 18 1028.4 1026.9 0.0
16/12:30pm 17.4 13.1 7.2 51 5.3 NE 19 32 10 17 1028.7 1027.2 0.0
16/12:00pm 18.0 13.2 7.4 50 5.5 NE 22 37 12 20 1029.1 1027.5 0.0
16/11:30am 16.9 12.8 8.6 58 4.4 NE 20 30 11 16 1029.3 1027.7 0.0
16/11:00am 17.4 12.8 9.8 61 4.1 NE 24 30 13 16 1029.5 1028.0 0.0
16/10:30am 15.3 10.4 8.5 64 3.6 NNE 24 37 13 20 1029.6 1028.1 0.0
16/10:00am 15.7 11.0 9.4 66 3.4 NE 24 33 13 18 1029.5 1028.0 0.0
16/09:30am 14.6 10.9 10.0 74 2.5 NNE 20 26 11 14 1029.3 1027.7 0.0
16/09:00am 14.4 10.0 10.4 77 2.2 NE 24 30 13 16 1028.7 1027.2 0.0
16/08:30am 13.5 10.8 11.7 89 1.0 NE 17 20 9 11 1028.5 1027.0 0.0
16/08:00am 11.6 9.6 11.6 100 0.0 NE 13 17 7 9 1028.2 1026.6 0.0
16/07:30am 11.3 9.2 11.3 100 0.0 NNE 13 15 7 8 1027.9 1026.3 0.0
16/07:00am 11.2 9.1 11.2 100 0.0 NE 13 17 7 9 1027.4 1025.9 0.0
16/06:30am 11.0 8.1 11.0 100 0.0 NNE 17 20 9 11 1027.1 1025.5 0.0
16/06:00am 10.8 8.2 10.8 100 0.0 NNE 15 20 8 11 1026.8 1025.2 0.0
16/05:30am 10.9 8.0 10.9 100 0.0 NE 17 20 9 11 1026.5 1024.9 0.0
16/05:00am 11.0 7.7 11.0 100 0.0 NNE 19 28 10 15 1026.1 1024.6 0.0
16/04:30am 11.1 8.6 11.1 100 0.0 NNE 15 17 8 9 1026.4 1024.8 0.0
16/04:00am 11.0 8.9 11.0 100 0.0 NNE 13 19 7 10 1026.4 1024.8 0.0
16/03:30am 11.1 8.6 11.1 100 0.0 NNE 15 19 8 10 1026.5 1024.9 0.0
16/03:00am 11.0 7.7 11.0 100 0.0 NNE 19 24 10 13 1026.6 1025.0 0.0
16/02:30am 10.8 8.2 10.8 100 0.0 NNE 15 19 8 10 1026.7 1025.1 0.0
16/02:00am 10.9 8.4 10.9 100 0.0 NNE 15 20 8 11 1026.8 1025.2 0.0
16/01:30am 10.5 8.2 10.5 100 0.0 NNE 13 17 7 9 1027.1 1025.5 0.0
16/01:00am 10.8 8.5 10.6 99 0.1 NNE 13 17 7 9 1027.3 1025.8 0.0
16/12:30am 11.5 9.4 11.0 97 0.3 NNE 13 17 7 9 1027.6 1026.0 0.0
16/12:00am 11.4 9.6 10.9 97 0.3 NNE 11 17 6 9 1027.7 1026.1 0.0
 
Date/Time
EDT
Temp
°C
App
Temp
°C
Dew
Point
°C
Rel
Hum
%
Delta-T
°C
Wind Press
QNH
hPa
Press
MSL
hPa
Rain since
9am
mm
Dir  Spd
km/h
Gust
km/h
Spd
kts
Gust
kts
15/11:30pm 11.6 9.5 11.1 97 0.3 NE 13 17 7 9 1027.7 1026.1 0.0
15/11:00pm 11.8 9.3 11.2 96 0.3 NE 15 17 8 9 1027.6 1026.0 0.0
15/10:30pm 11.9 9.4 11.1 95 0.4 NE 15 19 8 10 1027.6 1026.0 0.0
15/10:00pm 12.0 9.5 11.1 94 0.5 NE 15 20 8 11 1027.6 1026.0 0.0
15/09:30pm 12.2 9.3 10.9 92 0.7 ENE 17 22 9 12 1027.6 1026.0 0.0
15/09:00pm 12.4 9.9 11.0 91 0.8 ENE 15 20 8 11 1027.2 1025.7 0.0
15/08:30pm 12.6 10.8 10.8 89 1.0 ENE 11 15 6 8 1027.0 1025.4 0.0
15/08:00pm 12.7 10.5 10.8 88 1.0 ENE 13 17 7 9 1026.7 1025.1 0.0
15/07:30pm 12.9 11.0 10.6 86 1.2 ENE 11 15 6 8 1026.4 1024.8 0.0
15/07:00pm 13.3 9.9 10.7 84 1.4 ENE 19 24 10 13 1025.9 1024.3 0.0
15/06:30pm 13.9 10.9 10.5 80 1.9 NE 17 22 9 12 1025.7 1024.1 0.0
15/06:00pm 14.4 11.7 10.4 77 2.2 NE 15 24 8 13 1025.5 1023.9 0.0
15/05:30pm 14.6 12.0 10.6 77 2.2 ENE 15 20 8 11 1025.4 1023.8 0.0
15/05:00pm 15.0 12.0 10.6 75 2.4 NE 17 24 9 13 1025.3 1023.7 0.0
15/04:30pm 15.0 11.4 10.4 74 2.5 NE 20 28 11 15 1025.2 1023.6 0.0
15/04:00pm 15.4 12.3 10.4 72 2.7 ENE 17 22 9 12 1025.2 1023.6 0.0
15/03:30pm 16.4 14.2 10.7 69 3.2 NE 13 19 7 10 1025.3 1023.7 0.0
15/03:00pm 15.6 13.3 10.6 72 2.7 NE 13 19 7 10 1025.3 1023.7 0.0
15/02:30pm 15.7 13.1 10.7 72 2.8 NE 15 22 8 12 1025.6 1024.0 0.0
15/02:00pm 14.9 11.1 9.7 71 2.8 NE 20 26 11 14 1025.7 1024.1 0.0
15/01:30pm 15.1 11.5 9.9 71 2.8 NE 19 24 10 13 1025.8 1024.2 0.0
15/01:00pm 15.0 11.8 9.8 71 2.8 NE 17 20 9 11 1025.9 1024.3 0.0
15/12:30pm 15.0 12.3 10.2 73 2.6 NE 15 19 8 10 1026.0 1024.4 0.0
15/12:00pm 14.3 12.6 9.9 75 2.4 N 9 19 5 10 1026.4 1024.8 0.0
15/11:30am 13.9 11.9 10.3 79 2.0 N 11 17 6 9 1026.4 1024.8 0.0
15/11:00am 13.7 10.5 9.9 78 2.0 NNE 17 22 9 12 1026.5 1024.9 0.0
15/10:30am 13.3 10.5 10.1 81 1.7 NNE 15 20 8 11 1026.3 1024.7 0.0
15/10:00am 12.4 9.3 10.3 87 1.1 NE 17 20 9 11 1026.3 1024.7 0.0

Other Formats:

Comma delimited format used in spreadsheet applications
http://www.bom.gov.au/fwo/IDN60801/IDN60801.99742.axf

JavaScript Object Notation format (JSON) in row-major order
http://www.bom.gov.au/fwo/IDN60801/IDN60801.99742.json